sensor_id;sensor_type;location;lat;lon;timestamp;pressure;altitude;pressure_sealevel;temperature;humidity
60725;BME280;59881;36.722;-4.462;2023-03-25T00:00:06;101309.28;;;17.58;44.07
60725;BME280;59881;36.722;-4.462;2023-03-25T00:02:45;101327.28;;;17.66;44.02
60725;BME280;59881;36.722;-4.462;2023-03-25T00:05:12;100851.50;;;14.89;44.03
60725;BME280;59881;36.722;-4.462;2023-03-25T00:07:42;100964.84;;;15.10;44.08
60725;BME280;59881;36.722;-4.462;2023-03-25T00:10:09;101306.66;;;17.68;44.18
60725;BME280;59881;36.722;-4.462;2023-03-25T00:12:35;101297.53;;;17.61;44.24
60725;BME280;59881;36.722;-4.462;2023-03-25T00:15:01;101303.66;;;17.51;44.28
60725;BME280;59881;36.722;-4.462;2023-03-25T00:17:27;101248.72;;;17.08;44.56
60725;BME280;59881;36.722;-4.462;2023-03-25T00:19:55;101298.78;;;17.35;44.62
60725;BME280;59881;36.722;-4.462;2023-03-25T00:22:21;101364.31;;;17.27;44.52
60725;BME280;59881;36.722;-4.462;2023-03-25T00:24:47;101230.66;;;16.70;44.85
60725;BME280;59881;36.722;-4.462;2023-03-25T00:27:13;101304.97;;;17.15;45.08
60725;BME280;59881;36.722;-4.462;2023-03-25T00:29:42;101244.06;;;16.80;45.57
60725;BME280;59881;36.722;-4.462;2023-03-25T00:32:09;101202.63;;;16.66;45.74
60725;BME280;59881;36.722;-4.462;2023-03-25T00:34:34;101345.81;;;17.25;45.64
60725;BME280;59881;36.722;-4.462;2023-03-25T00:37:07;100901.75;;;15.02;45.52
60725;BME280;59881;36.722;-4.462;2023-03-25T00:39:33;101248.09;;;17.16;45.81
60725;BME280;59881;36.722;-4.462;2023-03-25T00:41:59;100806.22;;;14.38;45.59
60725;BME280;59881;36.722;-4.462;2023-03-25T00:44:27;101281.13;;;16.60;45.85
60725;BME280;59881;36.722;-4.462;2023-03-25T00:46:53;101246.75;;;17.01;45.94
60725;BME280;59881;36.722;-4.462;2023-03-25T00:49:18;101268.03;;;17.01;45.82
60725;BME280;59881;36.722;-4.462;2023-03-25T00:51:49;101294.44;;;17.13;46.19
60725;BME280;59881;36.722;-4.462;2023-03-25T00:54:16;101269.38;;;16.95;46.02
60725;BME280;59881;36.722;-4.462;2023-03-25T00:56:46;101288.94;;;17.05;46.30
60725;BME280;59881;36.722;-4.462;2023-03-25T00:59:12;101283.59;;;17.05;46.47
60725;BME280;59881;36.722;-4.462;2023-03-25T01:01:38;101283.59;;;17.05;46.72
60725;BME280;59881;36.722;-4.462;2023-03-25T01:04:04;101187.63;;;16.44;46.51
60725;BME280;59881;36.722;-4.462;2023-03-25T01:06:39;101277.69;;;17.02;46.86
60725;BME280;59881;36.722;-4.462;2023-03-25T01:09:11;101278.09;;;16.97;46.76
60725;BME280;59881;36.722;-4.462;2023-03-25T01:11:42;101282.69;;;16.95;46.92
60725;BME280;59881;36.722;-4.462;2023-03-25T01:14:12;101285.47;;;16.93;47.11
60725;BME280;59881;36.722;-4.462;2023-03-25T01:16:39;101273.41;;;16.89;47.11
60725;BME280;59881;36.722;-4.462;2023-03-25T01:19:04;101276.31;;;16.86;46.99
60725;BME280;59881;36.722;-4.462;2023-03-25T01:21:30;101269.31;;;16.85;47.29
60725;BME280;59881;36.722;-4.462;2023-03-25T01:23:59;101272.44;;;16.90;47.84
60725;BME280;59881;36.722;-4.462;2023-03-25T01:26:25;101238.66;;;16.70;47.59
60725;BME280;59881;36.722;-4.462;2023-03-25T01:28:50;100687.81;;;13.27;47.37
60725;BME280;59881;36.722;-4.462;2023-03-25T01:31:18;101260.94;;;16.90;47.67
60725;BME280;59881;36.722;-4.462;2023-03-25T01:33:43;101053.34;;;15.64;47.57
60725;BME280;59881;36.722;-4.462;2023-03-25T01:36:10;101261.34;;;16.85;47.72
60725;BME280;59881;36.722;-4.462;2023-03-25T01:38:38;101259.63;;;16.84;48.01
60725;BME280;59881;36.722;-4.462;2023-03-25T01:41:04;101237.09;;;16.67;48.07
60725;BME280;59881;36.722;-4.462;2023-03-25T01:43:31;100830.09;;;14.15;48.03
60725;BME280;59881;36.722;-4.462;2023-03-25T01:45:57;101244.13;;;16.57;48.25
60725;BME280;59881;36.722;-4.462;2023-03-25T01:48:41;101231.84;;;16.45;48.27
60725;BME280;59881;36.722;-4.462;2023-03-25T01:51:16;101275.28;;;16.66;48.39
60725;BME280;59881;36.722;-4.462;2023-03-25T01:53:42;101275.56;;;16.63;48.55
60725;BME280;59881;36.722;-4.462;2023-03-25T01:56:10;101206.06;;;16.24;49.00
60725;BME280;59881;36.722;-4.462;2023-03-25T01:58:38;101344.91;;;16.39;48.87
60725;BME280;59881;36.722;-4.462;2023-03-25T02:01:05;101262.03;;;16.55;49.08
60725;BME280;59881;36.722;-4.462;2023-03-25T02:03:31;100979.34;;;14.83;49.20
60725;BME280;59881;36.722;-4.462;2023-03-25T02:06:07;101260.75;;;16.49;49.46
60725;BME280;59881;36.722;-4.462;2023-03-25T02:08:37;101259.41;;;16.44;49.43
60725;BME280;59881;36.722;-4.462;2023-03-25T02:11:08;101185.88;;;16.01;49.82
60725;BME280;59881;36.722;-4.462;2023-03-25T02:13:35;101204.56;;;16.10;50.30
60725;BME280;59881;36.722;-4.462;2023-03-25T02:16:20;101253.75;;;16.37;50.17
60725;BME280;59881;36.722;-4.462;2023-03-25T02:24:59;101259.19;;;16.35;50.98
60725;BME280;59881;36.722;-4.462;2023-03-25T02:38:51;100801.78;;;13.13;51.39
60725;BME280;59881;36.722;-4.462;2023-03-25T02:44:17;101239.66;;;16.25;51.57
60725;BME280;59881;36.722;-4.462;2023-03-25T02:46:48;101237.97;;;16.24;51.64
60725;BME280;59881;36.722;-4.462;2023-03-25T02:49:20;101055.16;;;15.08;51.62
60725;BME280;59881;36.722;-4.462;2023-03-25T02:51:52;101209.91;;;15.99;51.58
60725;BME280;59881;36.722;-4.462;2023-03-25T02:54:23;101210.75;;;15.88;51.84
60725;BME280;59881;36.722;-4.462;2023-03-25T02:56:50;101149.84;;;15.42;52.10
60725;BME280;59881;36.722;-4.462;2023-03-25T02:59:22;100876.03;;;13.58;51.81
60725;BME280;59881;36.722;-4.462;2023-03-25T03:01:50;101053.00;;;14.68;52.01
60725;BME280;59881;36.722;-4.462;2023-03-25T03:04:23;101244.94;;;15.82;52.79
60725;BME280;59881;36.722;-4.462;2023-03-25T03:06:49;101212.59;;;15.65;53.20
60725;BME280;59881;36.722;-4.462;2023-03-25T03:10:31;101213.78;;;15.61;53.15
60725;BME280;59881;36.722;-4.462;2023-03-25T03:18:09;101237.06;;;15.69;53.92
60725;BME280;59881;36.722;-4.462;2023-03-25T03:21:14;101245.16;;;15.67;54.03
60725;BME280;59881;36.722;-4.462;2023-03-25T03:26:35;101233.69;;;15.67;54.50
60725;BME280;59881;36.722;-4.462;2023-03-25T03:29:11;101227.81;;;15.63;54.73
60725;BME280;59881;36.722;-4.462;2023-03-25T03:31:44;101314.22;;;15.67;54.78
60725;BME280;59881;36.722;-4.462;2023-03-25T03:34:26;101238.28;;;15.65;54.67
60725;BME280;59881;36.722;-4.462;2023-03-25T03:36:56;101236.09;;;15.25;54.84
60725;BME280;59881;36.722;-4.462;2023-03-25T03:39:27;100810.53;;;13.02;54.57
60725;BME280;59881;36.722;-4.462;2023-03-25T03:42:02;101236.59;;;15.64;55.01
60725;BME280;59881;36.722;-4.462;2023-03-25T03:44:35;101180.84;;;15.30;54.94
60725;BME280;59881;36.722;-4.462;2023-03-25T03:47:07;101193.41;;;15.50;54.92
60725;BME280;59881;36.722;-4.462;2023-03-25T03:49:43;101209.56;;;15.59;54.88
60725;BME280;59881;36.722;-4.462;2023-03-25T03:52:14;101376.03;;;15.69;54.71
60725;BME280;59881;36.722;-4.462;2023-03-25T03:58:05;101243.47;;;15.66;54.97
60725;BME280;59881;36.722;-4.462;2023-03-25T04:00:46;101242.63;;;15.66;55.37
60725;BME280;59881;36.722;-4.462;2023-03-25T04:03:21;101176.47;;;14.95;55.29
60725;BME280;59881;36.722;-4.462;2023-03-25T04:05:58;101242.63;;;15.66;55.37
60725;BME280;59881;36.722;-4.462;2023-03-25T04:08:32;101324.72;;;15.69;55.49
60725;BME280;59881;36.722;-4.462;2023-03-25T04:11:09;101246.75;;;15.70;55.35
60725;BME280;59881;36.722;-4.462;2023-03-25T04:13:39;101244.19;;;15.68;55.69
60725;BME280;59881;36.722;-4.462;2023-03-25T04:16:06;101217.66;;;15.46;55.70
60725;BME280;59881;36.722;-4.462;2023-03-25T04:18:32;100892.28;;;13.53;55.63
60725;BME280;59881;36.722;-4.462;2023-03-25T04:20:59;101376.00;;;15.47;55.68
60725;BME280;59881;36.722;-4.462;2023-03-25T04:23:25;101093.88;;;14.66;55.68
60725;BME280;59881;36.722;-4.462;2023-03-25T04:25:54;101225.84;;;15.43;55.85
60725;BME280;59881;36.722;-4.462;2023-03-25T04:28:21;101256.75;;;15.55;55.99
60725;BME280;59881;36.722;-4.462;2023-03-25T04:30:48;101262.06;;;15.55;56.27
60725;BME280;59881;36.722;-4.462;2023-03-25T04:33:23;101259.53;;;15.53;56.28
60725;BME280;59881;36.722;-4.462;2023-03-25T04:35:49;101263.16;;;15.52;56.37
60725;BME280;59881;36.722;-4.462;2023-03-25T04:38:18;101274.72;;;15.51;56.57
60725;BME280;59881;36.722;-4.462;2023-03-25T04:40:45;101271.34;;;15.49;56.67
60725;BME280;59881;36.722;-4.462;2023-03-25T04:43:15;101255.03;;;15.31;56.62
60725;BME280;59881;36.722;-4.462;2023-03-25T04:45:42;101239.63;;;15.25;56.84
60725;BME280;59881;36.722;-4.462;2023-03-25T04:48:24;101280.53;;;15.45;56.92
60725;BME280;59881;36.722;-4.462;2023-03-25T04:50:54;101188.03;;;14.94;57.03
60725;BME280;59881;36.722;-4.462;2023-03-25T04:53:22;101145.81;;;14.68;57.05
60725;BME280;59881;36.722;-4.462;2023-03-25T04:55:48;101270.97;;;15.43;57.29
60725;BME280;59881;36.722;-4.462;2023-03-25T04:58:14;101219.91;;;15.05;57.36
60725;BME280;59881;36.722;-4.462;2023-03-25T05:00:41;101252.88;;;15.25;57.37
60725;BME280;59881;36.722;-4.462;2023-03-25T05:03:08;101198.91;;;14.91;57.52
60725;BME280;59881;36.722;-4.462;2023-03-25T05:05:36;100898.41;;;13.05;57.67
60725;BME280;59881;36.722;-4.462;2023-03-25T05:08:02;100846.22;;;12.72;57.25
60725;BME280;59881;36.722;-4.462;2023-03-25T05:10:28;101263.25;;;15.17;57.70
60725;BME280;59881;36.722;-4.462;2023-03-25T05:13:00;100779.91;;;12.27;57.52
60725;BME280;59881;36.722;-4.462;2023-03-25T05:15:27;101229.91;;;14.90;57.83
60725;BME280;59881;36.722;-4.462;2023-03-25T05:17:54;101192.19;;;14.63;57.73
60725;BME280;59881;36.722;-4.462;2023-03-25T05:20:20;101277.34;;;15.06;57.69
60725;BME280;59881;36.722;-4.462;2023-03-25T05:22:46;100769.00;;;11.95;57.81
60725;BME280;59881;36.722;-4.462;2023-03-25T05:25:12;100939.09;;;12.92;57.84
60725;BME280;59881;36.722;-4.462;2023-03-25T05:27:37;101304.59;;;15.08;58.00
60725;BME280;59881;36.722;-4.462;2023-03-25T05:30:05;101287.63;;;14.87;57.88
60725;BME280;59881;36.722;-4.462;2023-03-25T05:32:31;100482.84;;;9.86;57.81
60725;BME280;59881;36.722;-4.462;2023-03-25T05:35:00;101397.72;;;14.81;58.41
60725;BME280;59881;36.722;-4.462;2023-03-25T05:37:27;101313.72;;;14.93;58.27
60725;BME280;59881;36.722;-4.462;2023-03-25T05:39:52;101290.69;;;14.69;58.32
60725;BME280;59881;36.722;-4.462;2023-03-25T05:42:18;101324.38;;;14.80;58.15
60725;BME280;59881;36.722;-4.462;2023-03-25T05:44:50;101140.84;;;13.56;58.07
60725;BME280;59881;36.722;-4.462;2023-03-25T05:47:21;101328.16;;;14.65;58.32
60725;BME280;59881;36.722;-4.462;2023-03-25T05:49:48;101331.16;;;14.60;58.45
60725;BME280;59881;36.722;-4.462;2023-03-25T05:52:15;101339.34;;;14.57;58.24
60725;BME280;59881;36.722;-4.462;2023-03-25T05:54:42;101439.53;;;14.52;58.47
60725;BME280;59881;36.722;-4.462;2023-03-25T05:57:10;101345.41;;;14.46;58.34
60725;BME280;59881;36.722;-4.462;2023-03-25T05:59:36;101231.66;;;13.70;58.41
60725;BME280;59881;36.722;-4.462;2023-03-25T06:02:07;101323.00;;;14.26;58.65
60725;BME280;59881;36.722;-4.462;2023-03-25T06:04:36;101296.50;;;14.14;58.95
60725;BME280;59881;36.722;-4.462;2023-03-25T06:07:05;101119.19;;;13.13;59.26
60725;BME280;59881;36.722;-4.462;2023-03-25T06:09:41;101327.38;;;14.39;58.98
60725;BME280;59881;36.722;-4.462;2023-03-25T06:12:15;101429.66;;;14.54;58.43
60725;BME280;59881;36.722;-4.462;2023-03-25T06:14:42;101358.22;;;14.53;58.41
60725;BME280;59881;36.722;-4.462;2023-03-25T06:17:13;100913.44;;;11.80;58.32
60725;BME280;59881;36.722;-4.462;2023-03-25T06:19:38;101316.94;;;14.24;58.01
60725;BME280;59881;36.722;-4.462;2023-03-25T06:22:09;101442.88;;;14.56;57.59
60725;BME280;59881;36.722;-4.462;2023-03-25T06:24:36;101365.19;;;14.66;58.12
60725;BME280;59881;36.722;-4.462;2023-03-25T06:27:05;101309.75;;;14.51;57.35
60725;BME280;59881;36.722;-4.462;2023-03-25T06:29:33;101382.97;;;15.01;57.00
60725;BME280;59881;36.722;-4.462;2023-03-25T06:31:58;101340.03;;;15.07;56.32
60725;BME280;59881;36.722;-4.462;2023-03-25T06:34:24;101353.97;;;15.91;55.68
60725;BME280;59881;36.722;-4.462;2023-03-25T06:36:50;101346.34;;;17.19;52.65
60725;BME280;59881;36.722;-4.462;2023-03-25T06:39:19;101504.53;;;18.54;49.05
60725;BME280;59881;36.722;-4.462;2023-03-25T06:41:44;101366.78;;;19.60;45.65
60725;BME280;59881;36.722;-4.462;2023-03-25T06:44:10;100904.75;;;17.73;42.58
60725;BME280;59881;36.722;-4.462;2023-03-25T06:46:37;100978.97;;;18.99;40.14
60725;BME280;59881;36.722;-4.462;2023-03-25T06:49:02;101367.00;;;22.27;38.35
60725;BME280;59881;36.722;-4.462;2023-03-25T06:51:28;101306.66;;;22.89;36.46
60725;BME280;59881;36.722;-4.462;2023-03-25T06:53:53;101329.41;;;23.91;34.65
60725;BME280;59881;36.722;-4.462;2023-03-25T06:56:19;101322.44;;;24.68;32.57
60725;BME280;59881;36.722;-4.462;2023-03-25T06:58:44;101326.91;;;25.22;32.02
60725;BME280;59881;36.722;-4.462;2023-03-25T07:01:10;101361.69;;;25.99;30.68
60725;BME280;59881;36.722;-4.462;2023-03-25T07:03:36;101364.94;;;26.46;30.08
60725;BME280;59881;36.722;-4.462;2023-03-25T07:06:02;101369.38;;;27.11;28.72
60725;BME280;59881;36.722;-4.462;2023-03-25T07:08:28;101342.38;;;27.68;27.92
60725;BME280;59881;36.722;-4.462;2023-03-25T07:11:02;101374.06;;;28.63;26.97
60725;BME280;59881;36.722;-4.462;2023-03-25T07:13:28;101369.34;;;29.25;26.45
60725;BME280;59881;36.722;-4.462;2023-03-25T07:15:56;101357.28;;;30.06;25.29
60725;BME280;59881;36.722;-4.462;2023-03-25T07:18:22;101311.31;;;30.50;24.29
60725;BME280;59881;36.722;-4.462;2023-03-25T07:20:47;101056.03;;;29.66;23.82
60725;BME280;59881;36.722;-4.462;2023-03-25T07:23:13;101316.03;;;31.62;23.04
60725;BME280;59881;36.722;-4.462;2023-03-25T07:25:38;101130.59;;;30.78;22.56
60725;BME280;59881;36.722;-4.462;2023-03-25T07:28:04;101397.19;;;32.64;22.17
60725;BME280;59881;36.722;-4.462;2023-03-25T07:30:30;101380.41;;;32.90;21.81
60725;BME280;59881;36.722;-4.462;2023-03-25T07:32:55;101098.38;;;31.48;22.23
60725;BME280;59881;36.722;-4.462;2023-03-25T07:35:21;101095.25;;;32.17;21.42
60725;BME280;59881;36.722;-4.462;2023-03-25T07:37:46;101158.16;;;33.22;20.99
60725;BME280;59881;36.722;-4.462;2023-03-25T07:40:12;101423.25;;;35.34;20.41
60725;BME280;59881;36.722;-4.462;2023-03-25T07:42:37;101387.88;;;35.89;19.55
60725;BME280;59881;36.722;-4.462;2023-03-25T07:45:04;101072.34;;;34.26;19.35
60725;BME280;59881;36.722;-4.462;2023-03-25T07:47:30;101442.13;;;36.53;19.30
60725;BME280;59881;36.722;-4.462;2023-03-25T07:49:55;101395.06;;;37.20;18.83
60725;BME280;59881;36.722;-4.462;2023-03-25T07:52:21;101398.69;;;37.68;18.11
60725;BME280;59881;36.722;-4.462;2023-03-25T07:54:47;101386.97;;;37.94;17.66
60725;BME280;59881;36.722;-4.462;2023-03-25T07:57:12;101114.69;;;36.37;17.67
60725;BME280;59881;36.722;-4.462;2023-03-25T07:59:38;101383.81;;;38.43;17.29
60725;BME280;59881;36.722;-4.462;2023-03-25T08:02:04;101332.94;;;38.76;16.85
60725;BME280;59881;36.722;-4.462;2023-03-25T08:04:29;100917.16;;;36.32;16.96
60725;BME280;59881;36.722;-4.462;2023-03-25T08:06:55;100956.78;;;36.66;16.50
60725;BME280;59881;36.722;-4.462;2023-03-25T08:09:21;101407.22;;;39.84;16.18
60725;BME280;59881;36.722;-4.462;2023-03-25T08:11:47;101402.78;;;40.43;15.78
60725;BME280;59881;36.722;-4.462;2023-03-25T08:14:13;101403.19;;;40.70;15.41
60725;BME280;59881;36.722;-4.462;2023-03-25T08:16:38;101114.34;;;39.32;14.80
60725;BME280;59881;36.722;-4.462;2023-03-25T08:19:04;101411.81;;;41.56;14.59
60725;BME280;59881;36.722;-4.462;2023-03-25T08:21:30;101422.00;;;41.85;14.51
60725;BME280;59881;36.722;-4.462;2023-03-25T08:23:56;101411.94;;;42.13;14.61
60725;BME280;59881;36.722;-4.462;2023-03-25T08:26:29;101416.94;;;42.54;13.97
60725;BME280;59881;36.722;-4.462;2023-03-25T08:28:55;101410.75;;;42.76;13.91
60725;BME280;59881;36.722;-4.462;2023-03-25T08:31:25;101418.16;;;42.81;13.88
60725;BME280;59881;36.722;-4.462;2023-03-25T08:33:56;101361.78;;;42.58;13.45
60725;BME280;59881;36.722;-4.462;2023-03-25T08:36:21;101409.72;;;42.91;13.69
60725;BME280;59881;36.722;-4.462;2023-03-25T08:38:48;101236.22;;;42.30;12.93
60725;BME280;59881;36.722;-4.462;2023-03-25T08:41:14;101453.41;;;43.60;13.44
60725;BME280;59881;36.722;-4.462;2023-03-25T08:43:40;101422.69;;;43.10;14.43
60725;BME280;59881;36.722;-4.462;2023-03-25T08:46:06;101429.88;;;42.78;14.55
60725;BME280;59881;36.722;-4.462;2023-03-25T08:48:31;101168.22;;;41.34;14.09
60725;BME280;59881;36.722;-4.462;2023-03-25T08:50:57;101420.59;;;43.02;14.39
60725;BME280;59881;36.722;-4.462;2023-03-25T08:53:24;101424.41;;;43.38;13.79
60725;BME280;59881;36.722;-4.462;2023-03-25T08:55:51;101392.25;;;43.37;13.71
60725;BME280;59881;36.722;-4.462;2023-03-25T08:58:17;101401.13;;;43.53;13.33
60725;BME280;59881;36.722;-4.462;2023-03-25T09:00:43;101440.41;;;44.38;13.18
60725;BME280;59881;36.722;-4.462;2023-03-25T09:03:08;101217.28;;;42.84;13.04
60725;BME280;59881;36.722;-4.462;2023-03-25T09:05:37;101220.56;;;42.99;13.09
60725;BME280;59881;36.722;-4.462;2023-03-25T09:08:04;101377.34;;;44.39;12.61
60725;BME280;59881;36.722;-4.462;2023-03-25T09:10:29;101438.72;;;45.19;12.57
60725;BME280;59881;36.722;-4.462;2023-03-25T09:12:55;101448.38;;;45.44;12.14
60725;BME280;59881;36.722;-4.462;2023-03-25T09:15:21;101444.56;;;45.62;11.78
60725;BME280;59881;36.722;-4.462;2023-03-25T09:17:46;101234.47;;;44.22;11.38
60725;BME280;59881;36.722;-4.462;2023-03-25T09:20:12;101452.41;;;45.60;11.38
60725;BME280;59881;36.722;-4.462;2023-03-25T09:22:39;101393.38;;;45.41;10.98
60725;BME280;59881;36.722;-4.462;2023-03-25T09:25:05;101228.19;;;44.62;11.42
60725;BME280;59881;36.722;-4.462;2023-03-25T09:27:31;101278.59;;;45.67;11.41
60725;BME280;59881;36.722;-4.462;2023-03-25T09:29:57;101439.16;;;46.67;9.67
60725;BME280;59881;36.722;-4.462;2023-03-25T09:32:23;101368.66;;;45.88;10.12
60725;BME280;59881;36.722;-4.462;2023-03-25T09:34:50;101443.97;;;45.92;9.97
60725;BME280;59881;36.722;-4.462;2023-03-25T09:37:16;101189.97;;;43.55;10.05
60725;BME280;59881;36.722;-4.462;2023-03-25T09:39:41;101434.69;;;45.25;9.97
60725;BME280;59881;36.722;-4.462;2023-03-25T09:47:28;101456.19;;;46.31;9.05
60725;BME280;59881;36.722;-4.462;2023-03-25T09:49:59;101462.28;;;46.85;9.44
60725;BME280;59881;36.722;-4.462;2023-03-25T09:55:41;101402.34;;;47.17;8.93
60725;BME280;59881;36.722;-4.462;2023-03-25T09:58:33;101467.34;;;49.00;8.75
60725;BME280;59881;36.722;-4.462;2023-03-25T10:06:19;101217.38;;;48.92;8.26
60725;BME280;59881;36.722;-4.462;2023-03-25T10:08:59;101477.47;;;50.64;8.00
60725;BME280;59881;36.722;-4.462;2023-03-25T10:22:04;101473.81;;;51.84;7.69
60725;BME280;59881;36.722;-4.462;2023-03-25T10:27:36;101485.06;;;50.92;7.09
60725;BME280;59881;36.722;-4.462;2023-03-25T10:32:43;101001.41;;;46.51;7.99
60725;BME280;59881;36.722;-4.462;2023-03-25T10:35:33;101471.53;;;49.64;7.96
60725;BME280;59881;36.722;-4.462;2023-03-25T10:38:09;101469.78;;;49.35;8.16
60725;BME280;59881;36.722;-4.462;2023-03-25T10:40:41;101466.22;;;49.01;8.39
60725;BME280;59881;36.722;-4.462;2023-03-25T10:46:32;101467.69;;;46.38;10.16
60725;BME280;59881;36.722;-4.462;2023-03-25T10:49:01;101463.75;;;45.41;10.85
60725;BME280;59881;36.722;-4.462;2023-03-25T10:51:34;101409.38;;;44.81;11.05
60725;BME280;59881;36.722;-4.462;2023-03-25T10:54:00;101471.06;;;43.50;11.84
60725;BME280;59881;36.722;-4.462;2023-03-25T10:56:38;101471.56;;;38.24;15.46
60725;BME280;59881;36.722;-4.462;2023-03-25T10:59:25;101485.28;;;33.90;19.17
60725;BME280;59881;36.722;-4.462;2023-03-25T11:01:54;101488.06;;;31.27;22.46
60725;BME280;59881;36.722;-4.462;2023-03-25T11:04:24;101453.88;;;29.22;24.15
60725;BME280;59881;36.722;-4.462;2023-03-25T11:06:54;101485.59;;;28.19;26.03
60725;BME280;59881;36.722;-4.462;2023-03-25T11:09:26;101496.16;;;27.36;27.28
60725;BME280;59881;36.722;-4.462;2023-03-25T11:11:55;101493.22;;;26.79;27.66
60725;BME280;59881;36.722;-4.462;2023-03-25T11:14:25;101484.28;;;26.49;28.85
60725;BME280;59881;36.722;-4.462;2023-03-25T11:17:02;101510.94;;;26.22;29.29
60725;BME280;59881;36.722;-4.462;2023-03-25T11:19:30;101488.38;;;26.00;30.37
60725;BME280;59881;36.722;-4.462;2023-03-25T11:22:08;101255.22;;;24.51;29.71
60725;BME280;59881;36.722;-4.462;2023-03-25T11:24:40;101491.47;;;25.74;30.48
60725;BME280;59881;36.722;-4.462;2023-03-25T11:27:07;101127.38;;;23.39;30.51
60725;BME280;59881;36.722;-4.462;2023-03-25T11:29:35;101543.97;;;25.17;30.66
60725;BME280;59881;36.722;-4.462;2023-03-25T11:32:10;101077.81;;;23.02;30.22
60725;BME280;59881;36.722;-4.462;2023-03-25T11:34:37;101479.69;;;25.52;30.69
60725;BME280;59881;36.722;-4.462;2023-03-25T11:39:40;101490.63;;;25.05;31.39
60725;BME280;59881;36.722;-4.462;2023-03-25T11:44:42;101065.03;;;22.15;31.55
60725;BME280;59881;36.722;-4.462;2023-03-25T11:47:18;101265.19;;;23.32;31.80
60725;BME280;59881;36.722;-4.462;2023-03-25T11:49:47;101478.56;;;24.61;31.58
60725;BME280;59881;36.722;-4.462;2023-03-25T11:52:17;101482.97;;;24.54;31.82
60725;BME280;59881;36.722;-4.462;2023-03-25T11:54:45;101481.81;;;24.48;32.38
60725;BME280;59881;36.722;-4.462;2023-03-25T11:57:22;101161.81;;;22.05;32.76
60725;BME280;59881;36.722;-4.462;2023-03-25T11:59:49;101400.22;;;23.75;33.15
60725;BME280;59881;36.722;-4.462;2023-03-25T12:02:29;101122.19;;;21.83;32.78
60725;BME280;59881;36.722;-4.462;2023-03-25T12:05:17;101336.38;;;23.53;33.66
60725;BME280;59881;36.722;-4.462;2023-03-25T12:07:46;101467.50;;;24.40;33.44
60725;BME280;59881;36.722;-4.462;2023-03-25T12:10:33;101466.81;;;24.46;33.12
60725;BME280;59881;36.722;-4.462;2023-03-25T12:13:20;101437.78;;;24.25;32.71
60725;BME280;59881;36.722;-4.462;2023-03-25T12:21:53;101469.19;;;23.85;33.77
60725;BME280;59881;36.722;-4.462;2023-03-25T12:27:24;101467.97;;;23.30;34.91
60725;BME280;59881;36.722;-4.462;2023-03-25T12:33:13;101464.25;;;23.14;37.29
60725;BME280;59881;36.722;-4.462;2023-03-25T12:35:56;101187.31;;;20.98;37.79
60725;BME280;59881;36.722;-4.462;2023-03-25T12:44:03;101357.16;;;22.10;38.12
60725;BME280;59881;36.722;-4.462;2023-03-25T12:46:42;101447.97;;;22.57;38.75
60725;BME280;59881;36.722;-4.462;2023-03-25T13:09:24;101425.22;;;22.35;42.73
60725;BME280;59881;36.722;-4.462;2023-03-25T13:12:02;101391.16;;;22.27;42.85
60725;BME280;59881;36.722;-4.462;2023-03-25T13:14:35;101393.84;;;22.36;42.93
60725;BME280;59881;36.722;-4.462;2023-03-25T13:17:07;101329.97;;;22.05;42.84
60725;BME280;59881;36.722;-4.462;2023-03-25T13:19:36;101361.16;;;22.32;42.64
60725;BME280;59881;36.722;-4.462;2023-03-25T13:22:29;101411.25;;;22.66;41.67
60725;BME280;59881;36.722;-4.462;2023-03-25T13:25:00;101388.03;;;22.48;42.45
60725;BME280;59881;36.722;-4.462;2023-03-25T13:27:32;101426.00;;;22.62;43.23
60725;BME280;59881;36.722;-4.462;2023-03-25T13:29:59;101042.97;;;20.26;43.11
60725;BME280;59881;36.722;-4.462;2023-03-25T13:32:33;101187.75;;;20.85;42.27
60725;BME280;59881;36.722;-4.462;2023-03-25T13:35:05;101045.56;;;20.18;42.83
60725;BME280;59881;36.722;-4.462;2023-03-25T13:37:39;101323.25;;;22.01;42.90
60725;BME280;59881;36.722;-4.462;2023-03-25T13:40:25;101202.03;;;21.20;42.37
60725;BME280;59881;36.722;-4.462;2023-03-25T13:43:05;101174.78;;;20.73;42.18
60725;BME280;59881;36.722;-4.462;2023-03-25T13:45:46;101392.03;;;22.36;42.76
60725;BME280;59881;36.722;-4.462;2023-03-25T13:51:01;101360.00;;;22.08;43.50
60725;BME280;59881;36.722;-4.462;2023-03-25T13:53:46;101381.75;;;22.23;43.76
60725;BME280;59881;36.722;-4.462;2023-03-25T14:05:52;101361.63;;;22.27;43.83
60725;BME280;59881;36.722;-4.462;2023-03-25T14:14:17;101360.72;;;22.19;44.13
60725;BME280;59881;36.722;-4.462;2023-03-25T14:16:51;101223.22;;;21.40;43.51
60725;BME280;59881;36.722;-4.462;2023-03-25T14:19:38;101265.66;;;21.44;42.78
60725;BME280;59881;36.722;-4.462;2023-03-25T14:22:12;101350.56;;;22.30;42.32
60725;BME280;59881;36.722;-4.462;2023-03-25T14:24:40;101324.44;;;22.06;41.75
60725;BME280;59881;36.722;-4.462;2023-03-25T14:27:20;100840.75;;;19.29;41.26
60725;BME280;59881;36.722;-4.462;2023-03-25T14:34:45;101320.56;;;22.43;39.55
60725;BME280;59881;36.722;-4.462;2023-03-25T14:37:26;101272.00;;;22.12;39.14
60725;BME280;59881;36.722;-4.462;2023-03-25T14:40:00;101319.19;;;22.31;37.78
60725;BME280;59881;36.722;-4.462;2023-03-25T14:48:41;101314.53;;;22.41;36.56
60725;BME280;59881;36.722;-4.462;2023-03-25T14:59:40;100908.47;;;19.82;36.32
60725;BME280;59881;36.722;-4.462;2023-03-25T15:13:08;101192.16;;;21.55;38.25
60725;BME280;59881;36.722;-4.462;2023-03-25T15:18:10;101291.25;;;22.07;39.09
60725;BME280;59881;36.722;-4.462;2023-03-25T15:20:36;101293.72;;;21.93;39.67
60725;BME280;59881;36.722;-4.462;2023-03-25T15:25:44;100836.59;;;19.35;38.99
60725;BME280;59881;36.722;-4.462;2023-03-25T15:29:13;101236.66;;;21.82;39.11
60725;BME280;59881;36.722;-4.462;2023-03-25T15:31:49;101275.13;;;21.99;39.49
60725;BME280;59881;36.722;-4.462;2023-03-25T15:39:59;101265.00;;;21.85;40.11
60725;BME280;59881;36.722;-4.462;2023-03-25T15:49:00;101277.25;;;21.79;39.52